sensor_id;sensor_type;location;lat;lon;timestamp;temperature;humidity
22680;DHT22;11507;44.858;10.374;2023-04-24T00:00:20;14.10;99.90
22680;DHT22;11507;44.858;10.374;2023-04-24T00:02:46;14.00;99.90
22680;DHT22;11507;44.858;10.374;2023-04-24T00:05:12;14.00;99.90
22680;DHT22;11507;44.858;10.374;2023-04-24T00:07:39;14.10;99.90
22680;DHT22;11507;44.858;10.374;2023-04-24T00:10:06;14.00;99.90
22680;DHT22;11507;44.858;10.374;2023-04-24T00:12:32;14.00;99.90
22680;DHT22;11507;44.858;10.374;2023-04-24T00:14:58;14.00;99.90
22680;DHT22;11507;44.858;10.374;2023-04-24T00:17:23;14.00;99.90
22680;DHT22;11507;44.858;10.374;2023-04-24T00:19:52;14.00;99.90
22680;DHT22;11507;44.858;10.374;2023-04-24T00:22:24;14.10;99.90
22680;DHT22;11507;44.858;10.374;2023-04-24T00:24:50;14.10;99.90
22680;DHT22;11507;44.858;10.374;2023-04-24T00:27:17;14.00;99.90
22680;DHT22;11507;44.858;10.374;2023-04-24T00:29:43;14.10;99.90
22680;DHT22;11507;44.858;10.374;2023-04-24T00:32:09;14.10;99.90
22680;DHT22;11507;44.858;10.374;2023-04-24T00:34:35;14.00;99.90
22680;DHT22;11507;44.858;10.374;2023-04-24T00:37:01;14.00;99.90
22680;DHT22;11507;44.858;10.374;2023-04-24T00:39:27;14.00;99.90
22680;DHT22;11507;44.858;10.374;2023-04-24T00:41:52;14.00;99.90
22680;DHT22;11507;44.858;10.374;2023-04-24T00:44:18;13.90;99.90
22680;DHT22;11507;44.858;10.374;2023-04-24T00:46:45;13.90;99.90
22680;DHT22;11507;44.858;10.374;2023-04-24T00:49:11;13.80;99.90
22680;DHT22;11507;44.858;10.374;2023-04-24T00:51:38;13.80;99.90
22680;DHT22;11507;44.858;10.374;2023-04-24T00:54:05;13.80;99.90
22680;DHT22;11507;44.858;10.374;2023-04-24T00:56:31;13.80;99.90
22680;DHT22;11507;44.858;10.374;2023-04-24T00:58:57;13.80;99.90
22680;DHT22;11507;44.858;10.374;2023-04-24T01:01:23;13.70;99.90
22680;DHT22;11507;44.858;10.374;2023-04-24T01:03:50;13.70;99.90
22680;DHT22;11507;44.858;10.374;2023-04-24T01:06:17;13.70;99.90
22680;DHT22;11507;44.858;10.374;2023-04-24T01:08:44;13.60;99.90
22680;DHT22;11507;44.858;10.374;2023-04-24T01:11:11;13.70;99.90
22680;DHT22;11507;44.858;10.374;2023-04-24T01:13:37;13.60;99.90
22680;DHT22;11507;44.858;10.374;2023-04-24T01:16:03;13.60;99.90
22680;DHT22;11507;44.858;10.374;2023-04-24T01:18:29;13.60;99.90
22680;DHT22;11507;44.858;10.374;2023-04-24T01:20:57;13.60;99.90
22680;DHT22;11507;44.858;10.374;2023-04-24T01:23:23;13.50;99.90
22680;DHT22;11507;44.858;10.374;2023-04-24T01:25:50;13.60;99.90
22680;DHT22;11507;44.858;10.374;2023-04-24T01:28:17;13.50;99.90
22680;DHT22;11507;44.858;10.374;2023-04-24T01:30:43;13.50;99.90
22680;DHT22;11507;44.858;10.374;2023-04-24T01:33:10;13.50;99.90
22680;DHT22;11507;44.858;10.374;2023-04-24T01:35:36;13.40;99.90
22680;DHT22;11507;44.858;10.374;2023-04-24T01:38:03;13.40;99.90
22680;DHT22;11507;44.858;10.374;2023-04-24T01:40:28;13.40;99.90
22680;DHT22;11507;44.858;10.374;2023-04-24T01:42:57;13.30;99.90
22680;DHT22;11507;44.858;10.374;2023-04-24T01:45:23;13.30;99.90
22680;DHT22;11507;44.858;10.374;2023-04-24T01:47:49;13.30;99.90
22680;DHT22;11507;44.858;10.374;2023-04-24T01:50:16;13.30;99.90
22680;DHT22;11507;44.858;10.374;2023-04-24T01:52:42;13.20;99.90
22680;DHT22;11507;44.858;10.374;2023-04-24T01:55:09;13.20;99.90
22680;DHT22;11507;44.858;10.374;2023-04-24T01:57:35;13.20;99.90
22680;DHT22;11507;44.858;10.374;2023-04-24T02:00:01;13.20;99.90
22680;DHT22;11507;44.858;10.374;2023-04-24T02:02:28;13.20;99.90
22680;DHT22;11507;44.858;10.374;2023-04-24T02:04:56;13.20;99.90
22680;DHT22;11507;44.858;10.374;2023-04-24T02:07:22;13.20;99.90
22680;DHT22;11507;44.858;10.374;2023-04-24T02:09:47;13.20;99.90
22680;DHT22;11507;44.858;10.374;2023-04-24T02:12:14;13.20;99.90
22680;DHT22;11507;44.858;10.374;2023-04-24T02:14:40;13.20;99.90
22680;DHT22;11507;44.858;10.374;2023-04-24T02:17:06;13.20;99.90
22680;DHT22;11507;44.858;10.374;2023-04-24T02:19:32;13.20;99.90
22680;DHT22;11507;44.858;10.374;2023-04-24T02:21:57;13.10;99.90
22680;DHT22;11507;44.858;10.374;2023-04-24T02:24:23;13.10;99.90
22680;DHT22;11507;44.858;10.374;2023-04-24T02:26:49;13.10;99.90
22680;DHT22;11507;44.858;10.374;2023-04-24T02:29:15;13.10;99.90
22680;DHT22;11507;44.858;10.374;2023-04-24T02:31:41;13.10;99.90
22680;DHT22;11507;44.858;10.374;2023-04-24T02:34:06;13.10;99.90
22680;DHT22;11507;44.858;10.374;2023-04-24T02:36:32;13.20;99.90
22680;DHT22;11507;44.858;10.374;2023-04-24T02:38:58;13.10;99.90
22680;DHT22;11507;44.858;10.374;2023-04-24T02:41:24;13.10;99.90
22680;DHT22;11507;44.858;10.374;2023-04-24T02:43:49;13.10;99.90
22680;DHT22;11507;44.858;10.374;2023-04-24T02:46:15;13.10;99.90
22680;DHT22;11507;44.858;10.374;2023-04-24T02:48:41;13.00;99.90
22680;DHT22;11507;44.858;10.374;2023-04-24T02:51:07;13.00;99.90
22680;DHT22;11507;44.858;10.374;2023-04-24T02:53:32;13.00;99.90
22680;DHT22;11507;44.858;10.374;2023-04-24T02:55:58;13.00;99.90
22680;DHT22;11507;44.858;10.374;2023-04-24T02:58:24;13.00;99.90
22680;DHT22;11507;44.858;10.374;2023-04-24T03:00:53;12.90;99.90
22680;DHT22;11507;44.858;10.374;2023-04-24T03:03:18;12.90;99.90
22680;DHT22;11507;44.858;10.374;2023-04-24T03:05:44;12.90;99.90
22680;DHT22;11507;44.858;10.374;2023-04-24T03:08:11;12.90;99.90
22680;DHT22;11507;44.858;10.374;2023-04-24T03:10:36;12.90;99.90
22680;DHT22;11507;44.858;10.374;2023-04-24T03:13:02;12.90;99.90
22680;DHT22;11507;44.858;10.374;2023-04-24T03:15:28;12.90;99.90
22680;DHT22;11507;44.858;10.374;2023-04-24T03:17:54;12.90;99.90
22680;DHT22;11507;44.858;10.374;2023-04-24T03:20:20;12.90;99.90
22680;DHT22;11507;44.858;10.374;2023-04-24T03:22:46;13.00;99.90
22680;DHT22;11507;44.858;10.374;2023-04-24T03:25:12;13.00;99.90
22680;DHT22;11507;44.858;10.374;2023-04-24T03:27:39;13.00;99.90
22680;DHT22;11507;44.858;10.374;2023-04-24T03:30:13;12.90;99.90
22680;DHT22;11507;44.858;10.374;2023-04-24T03:32:59;12.80;99.90
22680;DHT22;11507;44.858;10.374;2023-04-24T03:35:28;12.90;99.90
22680;DHT22;11507;44.858;10.374;2023-04-24T03:38:00;12.80;99.90
22680;DHT22;11507;44.858;10.374;2023-04-24T03:40:44;12.80;99.90
22680;DHT22;11507;44.858;10.374;2023-04-24T03:43:33;12.80;99.90
22680;DHT22;11507;44.858;10.374;2023-04-24T03:46:01;12.80;99.90
22680;DHT22;11507;44.858;10.374;2023-04-24T03:48:27;12.80;99.90
22680;DHT22;11507;44.858;10.374;2023-04-24T03:50:54;12.80;99.90
22680;DHT22;11507;44.858;10.374;2023-04-24T03:53:19;12.80;99.90
22680;DHT22;11507;44.858;10.374;2023-04-24T03:55:46;12.70;99.90
22680;DHT22;11507;44.858;10.374;2023-04-24T03:58:13;12.80;99.90
22680;DHT22;11507;44.858;10.374;2023-04-24T04:00:40;12.80;99.90
22680;DHT22;11507;44.858;10.374;2023-04-24T04:03:24;12.80;99.90
22680;DHT22;11507;44.858;10.374;2023-04-24T04:05:50;12.80;99.90
22680;DHT22;11507;44.858;10.374;2023-04-24T04:08:16;12.90;99.90
22680;DHT22;11507;44.858;10.374;2023-04-24T04:10:42;12.90;99.90
22680;DHT22;11507;44.858;10.374;2023-04-24T04:13:08;13.00;99.90
22680;DHT22;11507;44.858;10.374;2023-04-24T04:15:35;13.00;99.90
22680;DHT22;11507;44.858;10.374;2023-04-24T04:18:02;12.90;99.90
22680;DHT22;11507;44.858;10.374;2023-04-24T04:20:28;13.00;99.90
22680;DHT22;11507;44.858;10.374;2023-04-24T04:22:54;13.00;99.90
22680;DHT22;11507;44.858;10.374;2023-04-24T04:25:28;12.90;99.90
22680;DHT22;11507;44.858;10.374;2023-04-24T04:27:54;12.90;99.90
22680;DHT22;11507;44.858;10.374;2023-04-24T04:30:20;12.80;99.90
22680;DHT22;11507;44.858;10.374;2023-04-24T04:32:58;12.80;99.90
22680;DHT22;11507;44.858;10.374;2023-04-24T04:37:53;12.70;99.90
22680;DHT22;11507;44.858;10.374;2023-04-24T04:40:19;12.70;99.90
22680;DHT22;11507;44.858;10.374;2023-04-24T04:42:50;12.70;99.90
22680;DHT22;11507;44.858;10.374;2023-04-24T04:45:19;12.60;99.90
22680;DHT22;11507;44.858;10.374;2023-04-24T04:48:06;12.70;99.90
22680;DHT22;11507;44.858;10.374;2023-04-24T04:50:34;12.60;99.90
22680;DHT22;11507;44.858;10.374;2023-04-24T04:53:05;12.60;99.90
22680;DHT22;11507;44.858;10.374;2023-04-24T04:55:36;12.70;99.90
22680;DHT22;11507;44.858;10.374;2023-04-24T04:58:10;12.70;99.90
22680;DHT22;11507;44.858;10.374;2023-04-24T05:00:36;12.60;99.90
22680;DHT22;11507;44.858;10.374;2023-04-24T05:03:12;12.60;99.90
22680;DHT22;11507;44.858;10.374;2023-04-24T05:05:38;12.60;99.90
22680;DHT22;11507;44.858;10.374;2023-04-24T05:08:08;12.70;99.90
22680;DHT22;11507;44.858;10.374;2023-04-24T05:10:34;12.70;99.90
22680;DHT22;11507;44.858;10.374;2023-04-24T05:13:02;12.80;99.90
22680;DHT22;11507;44.858;10.374;2023-04-24T05:15:29;12.80;99.90
22680;DHT22;11507;44.858;10.374;2023-04-24T05:17:56;12.80;99.90
22680;DHT22;11507;44.858;10.374;2023-04-24T05:20:22;12.90;99.90
22680;DHT22;11507;44.858;10.374;2023-04-24T05:22:47;12.90;99.90
22680;DHT22;11507;44.858;10.374;2023-04-24T05:25:14;12.90;99.90
22680;DHT22;11507;44.858;10.374;2023-04-24T05:27:51;12.90;99.90
22680;DHT22;11507;44.858;10.374;2023-04-24T05:30:17;12.90;99.90
22680;DHT22;11507;44.858;10.374;2023-04-24T05:32:43;12.90;99.90
22680;DHT22;11507;44.858;10.374;2023-04-24T05:35:09;13.00;99.90
22680;DHT22;11507;44.858;10.374;2023-04-24T05:37:35;13.00;99.90
22680;DHT22;11507;44.858;10.374;2023-04-24T05:40:01;13.00;99.90
22680;DHT22;11507;44.858;10.374;2023-04-24T05:42:29;13.00;99.90
22680;DHT22;11507;44.858;10.374;2023-04-24T05:44:56;13.00;99.90
22680;DHT22;11507;44.858;10.374;2023-04-24T05:47:22;13.00;99.90
22680;DHT22;11507;44.858;10.374;2023-04-24T05:49:49;13.00;99.90
22680;DHT22;11507;44.858;10.374;2023-04-24T05:52:14;13.00;99.90
22680;DHT22;11507;44.858;10.374;2023-04-24T05:54:41;13.10;99.90
22680;DHT22;11507;44.858;10.374;2023-04-24T05:57:09;13.00;99.90
22680;DHT22;11507;44.858;10.374;2023-04-24T05:59:51;13.00;99.90
22680;DHT22;11507;44.858;10.374;2023-04-24T06:02:17;13.10;99.90
22680;DHT22;11507;44.858;10.374;2023-04-24T06:04:44;13.10;99.90
22680;DHT22;11507;44.858;10.374;2023-04-24T06:07:13;13.10;99.90
22680;DHT22;11507;44.858;10.374;2023-04-24T06:09:41;13.20;99.90
22680;DHT22;11507;44.858;10.374;2023-04-24T06:12:07;13.20;99.90
22680;DHT22;11507;44.858;10.374;2023-04-24T06:14:48;13.30;99.90
22680;DHT22;11507;44.858;10.374;2023-04-24T06:17:19;13.40;99.90
22680;DHT22;11507;44.858;10.374;2023-04-24T06:19:46;13.60;99.90
22680;DHT22;11507;44.858;10.374;2023-04-24T06:22:12;13.80;99.90
22680;DHT22;11507;44.858;10.374;2023-04-24T06:24:41;14.00;99.90
22680;DHT22;11507;44.858;10.374;2023-04-24T06:27:08;14.10;99.90
22680;DHT22;11507;44.858;10.374;2023-04-24T06:29:34;14.20;99.90
22680;DHT22;11507;44.858;10.374;2023-04-24T06:32:00;14.30;99.90
22680;DHT22;11507;44.858;10.374;2023-04-24T06:34:25;14.30;99.90
22680;DHT22;11507;44.858;10.374;2023-04-24T06:36:51;14.30;99.90
22680;DHT22;11507;44.858;10.374;2023-04-24T06:39:17;14.40;99.90
22680;DHT22;11507;44.858;10.374;2023-04-24T06:41:43;14.50;99.90
22680;DHT22;11507;44.858;10.374;2023-04-24T06:44:18;14.70;99.90
22680;DHT22;11507;44.858;10.374;2023-04-24T06:46:54;15.10;99.90
22680;DHT22;11507;44.858;10.374;2023-04-24T06:49:21;15.40;99.90
22680;DHT22;11507;44.858;10.374;2023-04-24T06:51:47;15.70;99.90
22680;DHT22;11507;44.858;10.374;2023-04-24T06:54:14;15.90;99.90
22680;DHT22;11507;44.858;10.374;2023-04-24T06:56:41;16.10;99.90
22680;DHT22;11507;44.858;10.374;2023-04-24T06:59:07;16.30;99.90
22680;DHT22;11507;44.858;10.374;2023-04-24T07:01:33;16.40;99.90
22680;DHT22;11507;44.858;10.374;2023-04-24T07:03:58;16.60;99.90
22680;DHT22;11507;44.858;10.374;2023-04-24T07:06:24;16.90;99.90
22680;DHT22;11507;44.858;10.374;2023-04-24T07:08:50;17.10;99.90
22680;DHT22;11507;44.858;10.374;2023-04-24T07:11:18;17.30;99.90
22680;DHT22;11507;44.858;10.374;2023-04-24T07:13:44;17.50;99.90
22680;DHT22;11507;44.858;10.374;2023-04-24T07:16:10;17.70;99.90
22680;DHT22;11507;44.858;10.374;2023-04-24T07:18:35;17.90;99.90
22680;DHT22;11507;44.858;10.374;2023-04-24T07:21:02;18.10;99.90
22680;DHT22;11507;44.858;10.374;2023-04-24T07:23:27;18.20;99.90
22680;DHT22;11507;44.858;10.374;2023-04-24T07:25:53;18.40;99.90
22680;DHT22;11507;44.858;10.374;2023-04-24T07:28:19;18.50;99.90
22680;DHT22;11507;44.858;10.374;2023-04-24T07:30:45;18.40;99.90
22680;DHT22;11507;44.858;10.374;2023-04-24T07:33:11;18.10;99.90
22680;DHT22;11507;44.858;10.374;2023-04-24T07:35:38;17.90;99.90
22680;DHT22;11507;44.858;10.374;2023-04-24T07:38:04;17.70;99.90
22680;DHT22;11507;44.858;10.374;2023-04-24T07:40:30;17.60;99.90
22680;DHT22;11507;44.858;10.374;2023-04-24T07:42:56;17.60;99.90
22680;DHT22;11507;44.858;10.374;2023-04-24T07:45:21;17.60;99.90
22680;DHT22;11507;44.858;10.374;2023-04-24T07:47:50;17.70;99.90
22680;DHT22;11507;44.858;10.374;2023-04-24T07:50:16;17.70;99.90
22680;DHT22;11507;44.858;10.374;2023-04-24T07:52:42;17.90;99.90
22680;DHT22;11507;44.858;10.374;2023-04-24T07:55:08;18.00;99.90
22680;DHT22;11507;44.858;10.374;2023-04-24T07:57:35;18.10;99.90
22680;DHT22;11507;44.858;10.374;2023-04-24T08:00:02;18.20;99.90
22680;DHT22;11507;44.858;10.374;2023-04-24T08:02:37;18.30;99.90
22680;DHT22;11507;44.858;10.374;2023-04-24T08:05:03;18.40;99.90
22680;DHT22;11507;44.858;10.374;2023-04-24T08:07:30;18.40;99.90
22680;DHT22;11507;44.858;10.374;2023-04-24T08:09:56;18.40;99.90
22680;DHT22;11507;44.858;10.374;2023-04-24T08:12:22;18.50;99.90
22680;DHT22;11507;44.858;10.374;2023-04-24T08:14:48;18.60;99.90
22680;DHT22;11507;44.858;10.374;2023-04-24T08:17:14;18.70;99.90
22680;DHT22;11507;44.858;10.374;2023-04-24T08:19:41;18.90;99.90
22680;DHT22;11507;44.858;10.374;2023-04-24T08:22:14;19.10;99.90
22680;DHT22;11507;44.858;10.374;2023-04-24T08:24:40;19.30;99.90
22680;DHT22;11507;44.858;10.374;2023-04-24T08:27:06;19.60;99.90
22680;DHT22;11507;44.858;10.374;2023-04-24T08:29:31;19.70;99.90
22680;DHT22;11507;44.858;10.374;2023-04-24T08:31:57;19.60;99.90
22680;DHT22;11507;44.858;10.374;2023-04-24T08:34:23;19.50;99.90
22680;DHT22;11507;44.858;10.374;2023-04-24T08:36:49;19.40;99.90
22680;DHT22;11507;44.858;10.374;2023-04-24T08:39:15;19.40;99.90
22680;DHT22;11507;44.858;10.374;2023-04-24T08:41:42;19.60;99.90
22680;DHT22;11507;44.858;10.374;2023-04-24T08:44:09;19.70;99.90
22680;DHT22;11507;44.858;10.374;2023-04-24T08:46:36;19.70;99.90
22680;DHT22;11507;44.858;10.374;2023-04-24T08:49:02;19.90;99.90
22680;DHT22;11507;44.858;10.374;2023-04-24T08:51:29;20.00;99.90
22680;DHT22;11507;44.858;10.374;2023-04-24T08:53:56;20.10;99.90
22680;DHT22;11507;44.858;10.374;2023-04-24T08:56:22;20.10;99.90
22680;DHT22;11507;44.858;10.374;2023-04-24T08:58:51;20.10;99.90
22680;DHT22;11507;44.858;10.374;2023-04-24T09:01:19;20.10;99.90
22680;DHT22;11507;44.858;10.374;2023-04-24T09:03:45;20.40;99.90
22680;DHT22;11507;44.858;10.374;2023-04-24T09:06:12;20.80;99.90
22680;DHT22;11507;44.858;10.374;2023-04-24T09:08:38;21.10;99.90
22680;DHT22;11507;44.858;10.374;2023-04-24T09:11:05;21.30;99.90
22680;DHT22;11507;44.858;10.374;2023-04-24T09:13:31;21.20;99.90
22680;DHT22;11507;44.858;10.374;2023-04-24T09:15:57;21.20;99.90
22680;DHT22;11507;44.858;10.374;2023-04-24T09:18:23;21.10;99.90
22680;DHT22;11507;44.858;10.374;2023-04-24T09:21:08;20.80;99.90
22680;DHT22;11507;44.858;10.374;2023-04-24T09:23:34;20.50;99.90
22680;DHT22;11507;44.858;10.374;2023-04-24T09:26:01;20.70;99.90
22680;DHT22;11507;44.858;10.374;2023-04-24T09:28:31;21.00;99.90
22680;DHT22;11507;44.858;10.374;2023-04-24T09:31:02;21.40;99.90
22680;DHT22;11507;44.858;10.374;2023-04-24T09:33:28;21.50;99.90
22680;DHT22;11507;44.858;10.374;2023-04-24T09:35:54;21.60;99.90
22680;DHT22;11507;44.858;10.374;2023-04-24T09:38:30;21.80;99.90
22680;DHT22;11507;44.858;10.374;2023-04-24T09:40:59;22.20;99.90
22680;DHT22;11507;44.858;10.374;2023-04-24T09:43:26;22.10;99.90
22680;DHT22;11507;44.858;10.374;2023-04-24T09:45:55;22.00;99.90
22680;DHT22;11507;44.858;10.374;2023-04-24T09:48:29;21.80;99.90
22680;DHT22;11507;44.858;10.374;2023-04-24T09:50:55;21.50;99.90
22680;DHT22;11507;44.858;10.374;2023-04-24T09:53:24;21.50;99.90
22680;DHT22;11507;44.858;10.374;2023-04-24T09:55:50;21.80;99.90
22680;DHT22;11507;44.858;10.374;2023-04-24T09:58:18;22.00;99.90
22680;DHT22;11507;44.858;10.374;2023-04-24T10:00:49;21.80;99.90
22680;DHT22;11507;44.858;10.374;2023-04-24T10:05:47;21.50;99.90
22680;DHT22;11507;44.858;10.374;2023-04-24T10:08:12;21.70;99.90
22680;DHT22;11507;44.858;10.374;2023-04-24T10:10:42;21.90;99.90
22680;DHT22;11507;44.858;10.374;2023-04-24T10:13:12;22.10;99.90
22680;DHT22;11507;44.858;10.374;2023-04-24T10:15:39;22.50;99.90
22680;DHT22;11507;44.858;10.374;2023-04-24T10:18:06;22.70;99.90
22680;DHT22;11507;44.858;10.374;2023-04-24T10:20:32;22.70;99.90
22680;DHT22;11507;44.858;10.374;2023-04-24T10:22:59;22.70;99.90
22680;DHT22;11507;44.858;10.374;2023-04-24T10:25:32;22.60;99.90
22680;DHT22;11507;44.858;10.374;2023-04-24T10:27:59;22.60;99.60
22680;DHT22;11507;44.858;10.374;2023-04-24T10:30:34;22.80;99.90
22680;DHT22;11507;44.858;10.374;2023-04-24T10:33:01;23.10;99.90
22680;DHT22;11507;44.858;10.374;2023-04-24T10:35:27;23.10;99.60
22680;DHT22;11507;44.858;10.374;2023-04-24T10:37:56;23.50;99.90
22680;DHT22;11507;44.858;10.374;2023-04-24T10:40:27;23.50;98.40
22680;DHT22;11507;44.858;10.374;2023-04-24T10:42:53;23.10;98.00
22680;DHT22;11507;44.858;10.374;2023-04-24T10:45:20;23.10;99.20
22680;DHT22;11507;44.858;10.374;2023-04-24T10:48:06;23.30;97.90
22680;DHT22;11507;44.858;10.374;2023-04-24T10:53:18;23.90;97.50
22680;DHT22;11507;44.858;10.374;2023-04-24T10:58:10;24.60;98.20
22680;DHT22;11507;44.858;10.374;2023-04-24T11:00:38;24.90;95.50
22680;DHT22;11507;44.858;10.374;2023-04-24T11:03:05;25.10;96.40
22680;DHT22;11507;44.858;10.374;2023-04-24T11:05:50;25.50;96.90
22680;DHT22;11507;44.858;10.374;2023-04-24T11:08:23;25.70;95.90
22680;DHT22;11507;44.858;10.374;2023-04-24T11:11:00;25.80;95.90
22680;DHT22;11507;44.858;10.374;2023-04-24T11:13:29;25.90;94.50
22680;DHT22;11507;44.858;10.374;2023-04-24T11:18:51;26.90;91.20
22680;DHT22;11507;44.858;10.374;2023-04-24T11:21:21;27.10;90.20
22680;DHT22;11507;44.858;10.374;2023-04-24T11:23:47;26.90;83.50
22680;DHT22;11507;44.858;10.374;2023-04-24T11:26:17;26.60;85.10
22680;DHT22;11507;44.858;10.374;2023-04-24T11:28:44;26.60;86.40
22680;DHT22;11507;44.858;10.374;2023-04-24T11:33:54;26.90;86.10
22680;DHT22;11507;44.858;10.374;2023-04-24T11:36:20;27.00;81.30
22680;DHT22;11507;44.858;10.374;2023-04-24T11:38:46;26.90;80.40
22680;DHT22;11507;44.858;10.374;2023-04-24T11:41:12;26.90;82.50
22680;DHT22;11507;44.858;10.374;2023-04-24T11:43:38;27.50;86.70
22680;DHT22;11507;44.858;10.374;2023-04-24T11:46:04;27.60;77.60
22680;DHT22;11507;44.858;10.374;2023-04-24T11:48:34;27.20;81.10
22680;DHT22;11507;44.858;10.374;2023-04-24T11:51:01;27.20;79.80
22680;DHT22;11507;44.858;10.374;2023-04-24T11:53:27;28.00;87.20
22680;DHT22;11507;44.858;10.374;2023-04-24T11:55:54;28.90;87.40
22680;DHT22;11507;44.858;10.374;2023-04-24T11:58:24;29.60;80.00
22680;DHT22;11507;44.858;10.374;2023-04-24T12:00:55;29.80;79.40
22680;DHT22;11507;44.858;10.374;2023-04-24T12:03:21;30.00;74.90
22680;DHT22;11507;44.858;10.374;2023-04-24T12:05:47;29.50;75.20
22680;DHT22;11507;44.858;10.374;2023-04-24T12:08:21;29.30;69.40
22680;DHT22;11507;44.858;10.374;2023-04-24T12:10:52;29.40;76.70
22680;DHT22;11507;44.858;10.374;2023-04-24T12:13:18;29.70;69.00
22680;DHT22;11507;44.858;10.374;2023-04-24T12:15:44;29.60;71.20
22680;DHT22;11507;44.858;10.374;2023-04-24T12:18:14;29.40;69.30
22680;DHT22;11507;44.858;10.374;2023-04-24T12:20:42;28.70;68.90
22680;DHT22;11507;44.858;10.374;2023-04-24T12:23:08;28.70;69.70
22680;DHT22;11507;44.858;10.374;2023-04-24T12:25:34;28.80;73.20
22680;DHT22;11507;44.858;10.374;2023-04-24T12:30:30;29.80;72.20
22680;DHT22;11507;44.858;10.374;2023-04-24T12:32:57;30.60;66.10
22680;DHT22;11507;44.858;10.374;2023-04-24T12:35:24;30.80;66.30
22680;DHT22;11507;44.858;10.374;2023-04-24T12:37:51;31.00;64.10
22680;DHT22;11507;44.858;10.374;2023-04-24T12:40:18;30.60;63.30
22680;DHT22;11507;44.858;10.374;2023-04-24T12:42:45;30.60;67.10
22680;DHT22;11507;44.858;10.374;2023-04-24T12:45:11;31.10;69.40
22680;DHT22;11507;44.858;10.374;2023-04-24T12:50:12;32.00;67.60
22680;DHT22;11507;44.858;10.374;2023-04-24T12:52:41;32.70;63.10
22680;DHT22;11507;44.858;10.374;2023-04-24T12:55:07;33.10;63.70
22680;DHT22;11507;44.858;10.374;2023-04-24T12:57:35;33.20;60.40
22680;DHT22;11507;44.858;10.374;2023-04-24T13:00:03;33.40;62.00
22680;DHT22;11507;44.858;10.374;2023-04-24T13:02:29;34.20;58.60
22680;DHT22;11507;44.858;10.374;2023-04-24T13:04:57;34.80;59.20
22680;DHT22;11507;44.858;10.374;2023-04-24T13:07:23;35.50;57.50
22680;DHT22;11507;44.858;10.374;2023-04-24T13:09:49;35.60;57.70
22680;DHT22;11507;44.858;10.374;2023-04-24T13:12:15;35.50;55.90
22680;DHT22;11507;44.858;10.374;2023-04-24T13:14:42;35.80;55.10
22680;DHT22;11507;44.858;10.374;2023-04-24T13:17:09;36.50;53.50
22680;DHT22;11507;44.858;10.374;2023-04-24T13:19:36;36.90;52.00
22680;DHT22;11507;44.858;10.374;2023-04-24T13:22:04;37.30;52.90
22680;DHT22;11507;44.858;10.374;2023-04-24T13:24:30;37.60;48.10
22680;DHT22;11507;44.858;10.374;2023-04-24T13:26:58;37.80;50.10
22680;DHT22;11507;44.858;10.374;2023-04-24T13:29:27;37.60;48.00
22680;DHT22;11507;44.858;10.374;2023-04-24T13:31:53;37.70;49.80
22680;DHT22;11507;44.858;10.374;2023-04-24T13:34:24;37.70;49.10
22680;DHT22;11507;44.858;10.374;2023-04-24T13:36:51;37.70;46.70
22680;DHT22;11507;44.858;10.374;2023-04-24T13:39:16;36.90;44.20
22680;DHT22;11507;44.858;10.374;2023-04-24T13:41:42;36.60;48.20
22680;DHT22;11507;44.858;10.374;2023-04-24T13:44:08;36.70;45.80
22680;DHT22;11507;44.858;10.374;2023-04-24T13:46:34;36.80;46.00
22680;DHT22;11507;44.858;10.374;2023-04-24T13:49:01;37.00;46.60
22680;DHT22;11507;44.858;10.374;2023-04-24T13:51:31;37.10;46.20
22680;DHT22;11507;44.858;10.374;2023-04-24T13:53:57;36.50;44.00
22680;DHT22;11507;44.858;10.374;2023-04-24T13:56:23;35.50;47.70
22680;DHT22;11507;44.858;10.374;2023-04-24T13:58:48;35.00;46.60
22680;DHT22;11507;44.858;10.374;2023-04-24T14:01:14;34.80;49.20
22680;DHT22;11507;44.858;10.374;2023-04-24T14:03:41;35.20;48.80
22680;DHT22;11507;44.858;10.374;2023-04-24T14:06:09;35.70;48.10
22680;DHT22;11507;44.858;10.374;2023-04-24T14:08:34;36.00;46.30
22680;DHT22;11507;44.858;10.374;2023-04-24T14:11:00;36.50;46.20
22680;DHT22;11507;44.858;10.374;2023-04-24T14:13:26;36.70;45.00
22680;DHT22;11507;44.858;10.374;2023-04-24T14:15:53;36.80;43.70
22680;DHT22;11507;44.858;10.374;2023-04-24T14:18:22;36.70;44.20
22680;DHT22;11507;44.858;10.374;2023-04-24T14:20:54;37.00;44.00
22680;DHT22;11507;44.858;10.374;2023-04-24T14:23:26;36.90;43.30
22680;DHT22;11507;44.858;10.374;2023-04-24T14:25:52;36.90;43.80
22680;DHT22;11507;44.858;10.374;2023-04-24T14:28:19;37.10;44.70
22680;DHT22;11507;44.858;10.374;2023-04-24T14:30:46;37.30;44.30
22680;DHT22;11507;44.858;10.374;2023-04-24T14:33:11;37.60;43.60
22680;DHT22;11507;44.858;10.374;2023-04-24T14:35:40;37.80;43.40
22680;DHT22;11507;44.858;10.374;2023-04-24T14:38:07;37.70;42.70
22680;DHT22;11507;44.858;10.374;2023-04-24T14:40:33;36.50;40.70
22680;DHT22;11507;44.858;10.374;2023-04-24T14:42:58;35.60;42.10
22680;DHT22;11507;44.858;10.374;2023-04-24T14:45:25;35.20;42.20
22680;DHT22;11507;44.858;10.374;2023-04-24T14:47:50;35.00;43.70
22680;DHT22;11507;44.858;10.374;2023-04-24T14:50:16;35.00;43.50
22680;DHT22;11507;44.858;10.374;2023-04-24T14:52:42;35.10;43.40
22680;DHT22;11507;44.858;10.374;2023-04-24T14:55:08;35.30;45.50
22680;DHT22;11507;44.858;10.374;2023-04-24T14:57:34;35.40;45.90
22680;DHT22;11507;44.858;10.374;2023-04-24T15:00:03;34.70;46.20
22680;DHT22;11507;44.858;10.374;2023-04-24T15:02:32;33.40;44.90
22680;DHT22;11507;44.858;10.374;2023-04-24T15:04:58;32.00;45.80
22680;DHT22;11507;44.858;10.374;2023-04-24T15:07:25;31.20;47.20
22680;DHT22;11507;44.858;10.374;2023-04-24T15:09:51;30.40;49.70
22680;DHT22;11507;44.858;10.374;2023-04-24T15:12:18;29.20;49.00
22680;DHT22;11507;44.858;10.374;2023-04-24T15:14:43;28.40;50.70
22680;DHT22;11507;44.858;10.374;2023-04-24T15:17:11;28.10;51.70
22680;DHT22;11507;44.858;10.374;2023-04-24T15:19:37;27.60;50.40
22680;DHT22;11507;44.858;10.374;2023-04-24T15:22:03;26.70;50.10
22680;DHT22;11507;44.858;10.374;2023-04-24T15:24:29;26.00;50.30
22680;DHT22;11507;44.858;10.374;2023-04-24T15:26:56;26.20;54.00
22680;DHT22;11507;44.858;10.374;2023-04-24T15:29:26;26.60;54.30
22680;DHT22;11507;44.858;10.374;2023-04-24T15:31:54;26.90;52.40
22680;DHT22;11507;44.858;10.374;2023-04-24T15:34:20;26.80;51.00
22680;DHT22;11507;44.858;10.374;2023-04-24T15:36:46;27.00;53.20